createdAt,value
2023-05-18T00:01:16.180Z,15.05
2023-05-18T00:03:42.863Z,15.18
2023-05-18T00:06:09.898Z,15.09
2023-05-18T00:08:37.600Z,15.18
2023-05-18T00:11:05.373Z,14.39
2023-05-18T00:13:32.237Z,14.48
2023-05-18T00:15:58.679Z,15.04
2023-05-18T00:18:26.655Z,14.94
2023-05-18T00:20:59.936Z,15.06
2023-05-18T00:23:29.663Z,14.50
2023-05-18T00:26:00.278Z,14.89
2023-05-18T00:28:27.003Z,14.33
2023-05-18T00:30:54.370Z,15.04
2023-05-18T00:33:21.246Z,14.93
2023-05-18T00:35:47.782Z,13.57
2023-05-18T00:38:17.011Z,14.97
2023-05-18T00:40:43.605Z,14.19
2023-05-18T00:43:10.578Z,14.96
2023-05-18T00:45:37.236Z,14.90
2023-05-18T00:48:04.109Z,13.95
2023-05-18T00:50:30.751Z,14.85
2023-05-18T00:52:57.229Z,14.14
2023-05-18T00:55:23.852Z,14.52
2023-05-18T00:57:50.408Z,14.45
2023-05-18T01:00:17.293Z,14.51
2023-05-18T01:02:45.225Z,14.38
2023-05-18T01:05:13.278Z,14.48
2023-05-18T01:07:42.564Z,13.58
2023-05-18T01:10:11.054Z,13.73
2023-05-18T01:13:15.528Z,14.30
2023-05-18T01:15:44.490Z,14.40
2023-05-18T01:18:21.715Z,14.02
2023-05-18T01:21:13.391Z,14.40
2023-05-18T01:24:00.915Z,13.98
2023-05-18T01:26:32.902Z,13.83
2023-05-18T01:29:01.328Z,13.99
2023-05-18T01:31:28.116Z,13.56
2023-05-18T01:33:54.554Z,13.77
2023-05-18T01:36:21.219Z,13.34
2023-05-18T01:38:48.387Z,13.56
2023-05-18T01:41:29.276Z,13.59
2023-05-18T01:44:15.781Z,13.48
2023-05-18T01:47:08.123Z,13.08
2023-05-18T01:49:58.043Z,13.07
2023-05-18T01:52:35.155Z,13.09
2023-05-18T01:55:04.025Z,12.89
2023-05-18T01:57:32.731Z,12.85
2023-05-18T02:00:04.577Z,13.02
2023-05-18T02:02:31.491Z,12.85
2023-05-18T02:04:57.932Z,12.72
2023-05-18T02:07:24.349Z,12.65
2023-05-18T02:09:50.895Z,12.29
2023-05-18T02:12:17.266Z,12.62
2023-05-18T02:14:43.652Z,12.59
2023-05-18T02:17:10.168Z,12.19
2023-05-18T02:19:38.119Z,12.32
2023-05-18T02:22:08.112Z,12.21
2023-05-18T02:24:34.908Z,12.51
2023-05-18T02:27:01.491Z,12.31
2023-05-18T02:29:27.946Z,12.22
2023-05-18T02:31:54.426Z,12.00
2023-05-18T02:34:22.807Z,12.07
2023-05-18T02:36:49.375Z,11.99
2023-05-18T02:39:16.110Z,11.84
2023-05-18T02:41:42.477Z,11.41
2023-05-18T02:44:08.941Z,11.85
2023-05-18T02:46:35.441Z,11.82
2023-05-18T02:49:01.862Z,11.69
2023-05-18T02:51:28.408Z,12.08
2023-05-18T02:53:54.830Z,12.09
2023-05-18T02:56:21.260Z,12.13
2023-05-18T02:58:47.760Z,12.18
2023-05-18T03:01:14.243Z,12.04
2023-05-18T03:03:42.410Z,12.09
2023-05-18T03:06:09.403Z,12.20
2023-05-18T03:08:37.173Z,12.03
2023-05-18T03:11:04.084Z,11.78
2023-05-18T03:13:30.459Z,11.47
2023-05-18T03:15:57.721Z,11.84
2023-05-18T03:18:25.182Z,12.18
2023-05-18T03:20:52.101Z,12.13
2023-05-18T03:23:19.967Z,12.01
2023-05-18T03:25:46.375Z,11.90
2023-05-18T03:28:12.772Z,11.86
2023-05-18T03:30:39.196Z,11.86
2023-05-18T03:33:05.638Z,11.80
2023-05-18T03:35:32.645Z,11.64
2023-05-18T03:37:59.212Z,11.71
2023-05-18T03:40:26.630Z,11.50
2023-05-18T03:42:53.116Z,11.62
2023-05-18T03:45:19.544Z,11.68
2023-05-18T03:47:46.298Z,11.54
2023-05-18T03:50:13.092Z,11.65
2023-05-18T03:52:39.934Z,11.85
2023-05-18T03:55:06.627Z,11.64
2023-05-18T03:57:33.273Z,11.27
2023-05-18T03:59:59.795Z,11.71
2023-05-18T04:02:26.506Z,11.76
2023-05-18T04:04:54.854Z,11.50
2023-05-18T04:07:24.307Z,10.86
2023-05-18T04:09:56.186Z,11.55
2023-05-18T04:12:23.001Z,11.67
2023-05-18T04:14:49.625Z,11.53
2023-05-18T04:17:17.375Z,11.57
2023-05-18T04:19:43.916Z,11.12
2023-05-18T04:22:10.341Z,11.60
2023-05-18T04:24:37.228Z,11.43
2023-05-18T04:27:04.016Z,11.44
2023-05-18T04:29:30.466Z,11.86
2023-05-18T04:32:03.096Z,11.73
2023-05-18T04:34:31.271Z,11.74
2023-05-18T04:37:00.669Z,12.08
2023-05-18T04:39:27.331Z,11.86
2023-05-18T04:41:59.456Z,12.29
2023-05-18T04:44:31.490Z,11.89
2023-05-18T04:46:59.212Z,12.38
2023-05-18T04:49:26.121Z,12.46
2023-05-18T04:51:56.119Z,12.62
2023-05-18T04:54:24.039Z,12.16
2023-05-18T04:56:51.599Z,12.67
2023-05-18T04:59:18.711Z,12.65
2023-05-18T05:01:46.280Z,12.95
2023-05-18T05:04:13.277Z,12.79
2023-05-18T05:06:39.755Z,12.07
2023-05-18T05:09:06.245Z,12.77
2023-05-18T05:11:32.687Z,13.09
2023-05-18T05:13:59.091Z,12.96
2023-05-18T05:16:25.644Z,12.26
2023-05-18T05:18:52.142Z,13.07
2023-05-18T05:21:18.572Z,12.49
2023-05-18T05:23:45.253Z,12.98
2023-05-18T05:26:11.665Z,13.29
2023-05-18T05:28:38.295Z,13.14
2023-05-18T05:31:04.739Z,13.26
2023-05-18T05:33:31.252Z,13.38
2023-05-18T05:35:57.661Z,13.29
2023-05-18T05:38:24.027Z,13.23
2023-05-18T05:40:50.554Z,13.46
2023-05-18T05:43:16.953Z,13.53
2023-05-18T05:45:43.656Z,13.59
2023-05-18T05:48:13.370Z,13.58
2023-05-18T05:50:40.198Z,13.16
2023-05-18T05:53:06.758Z,13.07
2023-05-18T05:55:33.418Z,13.50
2023-05-18T05:57:59.941Z,13.75
2023-05-18T06:00:28.661Z,13.91
2023-05-18T06:02:55.074Z,13.86
2023-05-18T06:05:21.561Z,13.65
2023-05-18T06:07:48.052Z,13.89
2023-05-18T06:10:14.504Z,14.09
2023-05-18T06:12:41.216Z,14.18
2023-05-18T06:15:08.314Z,14.29
2023-05-18T06:17:35.135Z,13.81
2023-05-18T06:20:01.561Z,14.17
2023-05-18T06:22:27.968Z,14.45
2023-05-18T06:24:54.353Z,14.35
2023-05-18T06:27:20.933Z,14.07
2023-05-18T06:29:47.304Z,14.44
2023-05-18T06:32:13.985Z,14.63
2023-05-18T06:34:40.487Z,14.71
2023-05-18T06:37:06.901Z,14.14
2023-05-18T06:39:33.317Z,14.70
2023-05-18T06:41:59.723Z,14.87
2023-05-18T06:44:26.399Z,15.07
2023-05-18T06:46:52.796Z,14.88
2023-05-18T06:49:19.189Z,14.88
2023-05-18T06:51:45.903Z,14.79
2023-05-18T06:54:12.958Z,14.45
2023-05-18T06:56:39.371Z,15.12
2023-05-18T06:59:05.931Z,15.25
2023-05-18T07:01:33.652Z,15.19
2023-05-18T07:04:00.236Z,15.20
2023-05-18T07:06:28.542Z,15.18
2023-05-18T07:08:54.973Z,14.82
2023-05-18T07:11:21.965Z,15.34
2023-05-18T07:13:48.353Z,15.58
2023-05-18T07:16:14.797Z,14.97
2023-05-18T07:18:42.273Z,14.81
2023-05-18T07:21:08.753Z,15.26
2023-05-18T07:23:35.233Z,15.17
2023-05-18T07:26:01.767Z,15.24
2023-05-18T07:28:28.223Z,15.57
2023-05-18T07:30:54.580Z,15.69
2023-05-18T07:33:21.042Z,15.82
2023-05-18T07:35:47.510Z,15.85
2023-05-18T07:38:13.874Z,16.13
2023-05-18T07:40:40.282Z,16.21
2023-05-18T07:43:06.673Z,15.82
2023-05-18T07:45:33.234Z,16.42
2023-05-18T07:48:00.317Z,16.41
2023-05-18T07:50:26.935Z,15.99
2023-05-18T07:52:53.287Z,16.42
2023-05-18T07:55:19.662Z,16.37
2023-05-18T07:57:46.061Z,16.42
2023-05-18T08:00:13.106Z,15.82
2023-05-18T08:02:55.299Z,16.73
2023-05-18T08:05:22.690Z,16.87
2023-05-18T08:07:49.540Z,16.97
2023-05-18T08:10:16.003Z,16.89
2023-05-18T08:12:42.483Z,16.76
2023-05-18T08:15:09.565Z,17.01
2023-05-18T08:17:35.980Z,16.97
2023-05-18T08:20:04.717Z,17.21
2023-05-18T08:22:31.156Z,17.15
2023-05-18T08:25:00.834Z,17.42
2023-05-18T08:27:29.474Z,17.61
2023-05-18T08:29:56.341Z,17.27
2023-05-18T08:32:22.808Z,17.28
2023-05-18T08:34:51.346Z,17.85
2023-05-18T08:37:17.853Z,17.98
2023-05-18T08:39:46.005Z,17.65
2023-05-18T08:42:17.690Z,17.39
2023-05-18T08:44:58.573Z,17.84
2023-05-18T08:47:26.699Z,17.92
2023-05-18T08:49:56.142Z,17.82
2023-05-18T08:52:27.884Z,18.39
2023-05-18T08:54:54.624Z,17.60
2023-05-18T08:57:33.901Z,18.16
2023-05-18T09:00:01.848Z,18.44
2023-05-18T09:02:29.109Z,18.87
2023-05-18T09:04:56.761Z,18.57
2023-05-18T09:07:23.476Z,18.80
2023-05-18T09:09:49.935Z,18.68
2023-05-18T09:12:18.841Z,18.31
2023-05-18T09:14:46.500Z,18.83
2023-05-18T09:17:13.071Z,18.85
2023-05-18T09:19:39.613Z,18.74
2023-05-18T09:22:06.664Z,19.02
2023-05-18T09:24:35.303Z,18.83
2023-05-18T09:27:02.101Z,18.42
2023-05-18T09:29:28.509Z,19.50
2023-05-18T09:31:55.107Z,19.33
2023-05-18T09:34:21.699Z,19.74
2023-05-18T09:36:52.950Z,20.06
2023-05-18T09:39:19.518Z,19.86
2023-05-18T09:41:46.081Z,19.65
2023-05-18T09:44:12.698Z,19.68
2023-05-18T09:46:40.152Z,19.82
2023-05-18T09:49:08.029Z,19.88
2023-05-18T09:51:38.581Z,19.38
2023-05-18T09:54:07.589Z,19.23
2023-05-18T09:56:38.125Z,19.66
2023-05-18T09:59:11.041Z,20.08
2023-05-18T10:01:41.726Z,20.08
2023-05-18T10:04:08.108Z,20.37
2023-05-18T10:06:34.562Z,20.15
2023-05-18T10:09:04.557Z,19.67
2023-05-18T10:11:32.067Z,20.40
2023-05-18T10:13:58.781Z,20.82
2023-05-18T10:16:25.741Z,20.80
2023-05-18T10:18:55.316Z,20.57
2023-05-18T10:21:24.595Z,20.23
2023-05-18T10:23:52.265Z,20.92
2023-05-18T10:26:22.795Z,20.87
2023-05-18T10:28:50.454Z,20.94
2023-05-18T10:31:17.191Z,21.22
2023-05-18T10:33:44.316Z,20.60
2023-05-18T10:36:11.478Z,20.78
2023-05-18T10:38:43.303Z,21.42
2023-05-18T10:41:11.595Z,21.75
2023-05-18T10:43:39.322Z,21.88
2023-05-18T10:46:08.163Z,21.69
2023-05-18T10:48:39.030Z,21.76
2023-05-18T10:51:07.382Z,22.25
2023-05-18T10:53:34.099Z,23.33
2023-05-18T10:56:01.025Z,24.82
2023-05-18T10:58:29.388Z,25.88
2023-05-18T11:00:57.990Z,25.95
2023-05-18T11:03:26.925Z,25.08
2023-05-18T11:06:10.275Z,24.67
2023-05-18T11:09:03.230Z,24.29
2023-05-18T11:11:30.281Z,24.43
2023-05-18T11:14:02.256Z,24.37
2023-05-18T11:16:36.216Z,23.76
2023-05-18T11:19:07.760Z,23.65
2023-05-18T11:21:37.069Z,24.09
2023-05-18T11:24:44.384Z,23.70
2023-05-18T11:27:16.161Z,23.50
2023-05-18T11:29:48.132Z,24.18
2023-05-18T11:32:30.325Z,24.34
2023-05-18T11:34:58.200Z,24.38
2023-05-18T11:37:39.968Z,24.70
2023-05-18T11:40:11.281Z,25.29
2023-05-18T11:42:38.247Z,25.65
2023-05-18T11:45:09.163Z,25.87
2023-05-18T11:47:36.670Z,25.70
2023-05-18T11:50:07.226Z,26.00
2023-05-18T11:52:33.683Z,26.22
2023-05-18T11:55:01.161Z,26.08
2023-05-18T11:57:33.870Z,26.33
2023-05-18T12:00:01.735Z,26.44
2023-05-18T12:02:31.815Z,25.96
2023-05-18T12:05:00.283Z,26.05
2023-05-18T12:07:28.358Z,25.85
2023-05-18T12:10:01.992Z,25.59
2023-05-18T12:12:28.827Z,25.14
2023-05-18T12:15:00.356Z,25.82
2023-05-18T12:17:48.109Z,26.36
2023-05-18T12:20:20.231Z,26.37
2023-05-18T12:22:52.806Z,26.50
2023-05-18T12:25:21.637Z,26.51
2023-05-18T12:27:48.594Z,26.66
2023-05-18T12:30:22.062Z,26.99
2023-05-18T12:32:51.000Z,26.69
2023-05-18T12:35:21.488Z,26.24
2023-05-18T12:37:47.945Z,26.43
2023-05-18T12:40:17.001Z,26.37
2023-05-18T12:42:57.397Z,26.72
2023-05-18T12:45:27.663Z,26.74
2023-05-18T12:47:55.455Z,26.35
2023-05-18T12:50:23.775Z,26.19
2023-05-18T12:52:51.088Z,26.39
2023-05-18T12:55:21.594Z,26.34
2023-05-18T12:58:20.829Z,26.22
2023-05-18T13:00:48.418Z,26.22
2023-05-18T13:03:17.802Z,26.37
2023-05-18T13:05:46.259Z,26.28
2023-05-18T13:08:19.016Z,26.31
2023-05-18T13:10:45.709Z,26.35
2023-05-18T13:13:16.226Z,26.39
2023-05-18T13:15:43.898Z,26.45
2023-05-18T13:18:11.901Z,25.77
2023-05-18T13:20:50.985Z,26.40
2023-05-18T13:23:19.539Z,26.26
2023-05-18T13:25:48.900Z,25.58
2023-05-18T13:28:17.091Z,26.19
2023-05-18T13:30:45.061Z,25.63
2023-05-18T13:33:12.010Z,25.30
2023-05-18T13:35:41.714Z,25.52
2023-05-18T13:38:13.195Z,24.75
2023-05-18T13:40:40.366Z,26.01
2023-05-18T13:43:06.820Z,26.08
2023-05-18T13:45:35.834Z,26.19
2023-05-18T13:48:09.261Z,26.33
2023-05-18T13:50:36.728Z,26.48
2023-05-18T13:53:03.331Z,26.12
2023-05-18T13:55:30.012Z,26.13
2023-05-18T13:57:56.861Z,26.51
2023-05-18T14:00:23.255Z,26.70
2023-05-18T14:02:49.881Z,26.51
2023-05-18T14:05:16.506Z,26.50
2023-05-18T14:07:43.889Z,26.39
2023-05-18T14:10:12.208Z,26.20
2023-05-18T14:12:39.301Z,26.49
2023-05-18T14:15:06.259Z,26.14
2023-05-18T14:17:32.855Z,26.49
2023-05-18T14:19:59.715Z,26.51
2023-05-18T14:22:26.486Z,26.51
2023-05-18T14:24:53.567Z,26.28
2023-05-18T14:27:20.515Z,26.45
2023-05-18T14:29:47.620Z,26.52
2023-05-18T14:32:14.285Z,26.71
2023-05-18T14:34:43.732Z,26.21
2023-05-18T14:37:10.168Z,26.42
2023-05-18T14:39:37.695Z,26.25
2023-05-18T14:42:04.485Z,26.94
2023-05-18T14:44:30.961Z,26.98
2023-05-18T14:46:57.528Z,26.87
2023-05-18T14:49:23.925Z,26.55
2023-05-18T14:51:50.525Z,26.28
2023-05-18T14:54:18.913Z,26.02
2023-05-18T14:56:45.581Z,26.41
2023-05-18T14:59:11.991Z,26.67
2023-05-18T15:01:38.425Z,26.71
2023-05-18T15:04:05.083Z,26.95
2023-05-18T15:06:31.566Z,26.85
2023-05-18T15:08:57.957Z,26.65
2023-05-18T15:11:24.328Z,26.93
2023-05-18T15:13:50.800Z,26.78
2023-05-18T15:16:19.578Z,27.08
2023-05-18T15:18:46.559Z,27.04
2023-05-18T15:21:13.060Z,26.50
2023-05-18T15:23:39.497Z,26.85
2023-05-18T15:26:08.233Z,26.88
2023-05-18T15:28:35.470Z,26.75
2023-05-18T15:31:01.882Z,26.63
2023-05-18T15:33:28.539Z,26.34
2023-05-18T15:35:54.969Z,25.98
2023-05-18T15:38:21.442Z,25.60
2023-05-18T15:40:47.929Z,26.16
2023-05-18T15:43:14.463Z,25.93
2023-05-18T15:45:40.865Z,26.14
2023-05-18T15:48:07.348Z,26.33
2023-05-18T15:50:33.798Z,26.45
2023-05-18T15:53:00.196Z,26.43
2023-05-18T15:55:26.582Z,25.90
2023-05-18T15:57:52.943Z,25.31
2023-05-18T16:00:22.128Z,25.62
2023-05-18T16:02:48.727Z,25.65
2023-05-18T16:05:15.247Z,25.29
2023-05-18T16:07:42.211Z,25.88
2023-05-18T16:10:08.870Z,26.01
2023-05-18T16:12:35.260Z,25.64
2023-05-18T16:15:01.669Z,25.73
2023-05-18T16:17:28.413Z,25.41
2023-05-18T16:19:54.921Z,25.38
2023-05-18T16:22:21.305Z,25.27
2023-05-18T16:24:47.678Z,25.57
2023-05-18T16:27:14.052Z,25.41
2023-05-18T16:29:41.428Z,25.47
2023-05-18T16:32:08.325Z,25.33
2023-05-18T16:34:34.692Z,25.22
2023-05-18T16:37:01.089Z,25.07
2023-05-18T16:39:27.475Z,24.88
2023-05-18T16:41:53.890Z,25.24
2023-05-18T16:44:20.500Z,24.84
2023-05-18T16:46:46.919Z,24.83
2023-05-18T16:49:13.419Z,24.90
2023-05-18T16:51:40.078Z,24.62
2023-05-18T16:54:06.858Z,24.27
2023-05-18T16:56:33.297Z,24.39
2023-05-18T16:58:59.696Z,24.32
2023-05-18T17:01:28.121Z,23.74
2023-05-18T17:03:54.851Z,23.70
2023-05-18T17:06:21.380Z,23.64
2023-05-18T17:08:47.770Z,23.56
2023-05-18T17:11:14.335Z,23.25
2023-05-18T17:13:40.747Z,23.38
2023-05-18T17:16:07.263Z,23.42
2023-05-18T17:18:33.665Z,23.74
2023-05-18T17:21:00.046Z,23.42
2023-05-18T17:23:26.571Z,23.07
2023-05-18T17:26:00.845Z,23.01
2023-05-18T17:28:31.931Z,23.12
2023-05-18T17:30:58.360Z,22.64
2023-05-18T17:33:24.898Z,22.64
2023-05-18T17:35:51.467Z,22.88
2023-05-18T17:38:17.933Z,22.90
2023-05-18T17:40:44.295Z,22.70
2023-05-18T17:43:11.116Z,22.87
2023-05-18T17:45:37.541Z,23.00
2023-05-18T17:48:04.300Z,22.52
2023-05-18T17:50:31.144Z,22.58
2023-05-18T17:52:58.314Z,22.89
2023-05-18T17:55:24.693Z,23.21
2023-05-18T17:57:51.571Z,23.02
2023-05-18T18:00:18.552Z,22.55
2023-05-18T18:02:45.035Z,22.44
2023-05-18T18:05:11.591Z,22.29
2023-05-18T18:07:39.186Z,23.11
2023-05-18T18:10:06.987Z,22.85
2023-05-18T18:12:33.389Z,22.95
2023-05-18T18:14:59.773Z,22.45
2023-05-18T18:17:26.246Z,22.61
2023-05-18T18:19:52.694Z,22.25
2023-05-18T18:22:19.184Z,22.04
2023-05-18T18:24:45.647Z,22.33
2023-05-18T18:27:12.017Z,22.28
2023-05-18T18:29:38.434Z,22.44
2023-05-18T18:32:05.037Z,22.16
2023-05-18T18:34:31.431Z,21.66
2023-05-18T18:36:58.750Z,21.86
2023-05-18T18:39:25.145Z,21.60
2023-05-18T18:41:51.538Z,21.85
2023-05-18T18:44:17.908Z,21.65
2023-05-18T18:46:45.223Z,21.43
2023-05-18T18:49:11.728Z,20.72
2023-05-18T18:51:38.126Z,21.13
2023-05-18T18:54:04.690Z,20.44
2023-05-18T18:56:31.461Z,20.18
2023-05-18T18:58:57.956Z,20.90
2023-05-18T19:01:24.428Z,19.69
2023-05-18T19:03:52.777Z,20.21
2023-05-18T19:06:20.130Z,20.15
2023-05-18T19:08:46.549Z,19.80
2023-05-18T19:11:12.956Z,20.33
2023-05-18T19:13:39.378Z,20.17
2023-05-18T19:16:06.350Z,20.50
2023-05-18T19:18:32.765Z,20.49
2023-05-18T19:21:01.164Z,20.13
2023-05-18T19:23:27.518Z,20.14
2023-05-18T19:25:54.746Z,20.17
2023-05-18T19:28:21.178Z,20.19
2023-05-18T19:30:48.130Z,20.07
2023-05-18T19:33:14.657Z,20.04
2023-05-18T19:35:41.199Z,19.58
2023-05-18T19:38:07.576Z,19.89
2023-05-18T19:40:33.955Z,19.92
2023-05-18T19:43:01.472Z,19.76
2023-05-18T19:45:27.941Z,19.39
2023-05-18T19:47:54.528Z,19.51
2023-05-18T19:50:21.195Z,19.83
2023-05-18T19:52:49.441Z,19.86
2023-05-18T19:55:16.454Z,19.87
2023-05-18T19:57:42.985Z,19.73
2023-05-18T20:00:11.017Z,19.77
2023-05-18T20:02:37.793Z,19.60
2023-05-18T20:05:06.681Z,19.64
2023-05-18T20:07:33.923Z,19.73
2023-05-18T20:10:00.327Z,19.52
2023-05-18T20:12:28.286Z,19.06
2023-05-18T20:14:54.775Z,19.28
2023-05-18T20:17:21.547Z,19.05
2023-05-18T20:19:50.986Z,19.20
2023-05-18T20:22:17.892Z,18.85
2023-05-18T20:24:44.981Z,19.17
2023-05-18T20:27:15.095Z,19.13
2023-05-18T20:29:41.680Z,18.84
2023-05-18T20:32:08.292Z,18.78
2023-05-18T20:34:34.756Z,18.89
2023-05-18T20:37:01.150Z,19.00
2023-05-18T20:39:28.942Z,18.67
2023-05-18T20:41:55.432Z,18.69
2023-05-18T20:44:23.332Z,18.65
2023-05-18T20:46:52.827Z,18.41
2023-05-18T20:49:21.633Z,18.37
2023-05-18T20:51:49.285Z,18.27
2023-05-18T20:54:17.731Z,18.38
2023-05-18T20:56:44.505Z,18.64
2023-05-18T20:59:12.522Z,18.40
2023-05-18T21:01:39.914Z,18.40
2023-05-18T21:04:06.686Z,18.19
2023-05-18T21:06:34.240Z,18.17
2023-05-18T21:09:01.403Z,18.14
2023-05-18T21:11:28.025Z,18.10
2023-05-18T21:13:54.380Z,18.18
2023-05-18T21:16:20.782Z,17.84
2023-05-18T21:18:47.396Z,18.05
2023-05-18T21:21:13.766Z,18.00
2023-05-18T21:23:40.145Z,17.85
2023-05-18T21:26:06.527Z,17.82
2023-05-18T21:28:32.900Z,17.78
2023-05-18T21:30:59.328Z,17.76
2023-05-18T21:33:25.953Z,17.57
2023-05-18T21:35:52.475Z,16.85
2023-05-18T21:38:18.894Z,17.21
2023-05-18T21:40:46.592Z,17.50
2023-05-18T21:43:12.981Z,17.50
2023-05-18T21:45:39.529Z,17.48
2023-05-18T21:48:06.291Z,17.18
2023-05-18T21:50:35.851Z,17.08
2023-05-18T21:53:05.493Z,17.33
2023-05-18T21:55:32.260Z,17.22
2023-05-18T21:57:59.185Z,17.06
2023-05-18T22:00:26.753Z,17.24
2023-05-18T22:02:53.136Z,17.28
2023-05-18T22:05:19.631Z,17.01
2023-05-18T22:07:46.081Z,17.18
2023-05-18T22:10:12.596Z,17.02
2023-05-18T22:12:40.959Z,16.98
2023-05-18T22:15:08.596Z,16.96
2023-05-18T22:17:36.528Z,16.99
2023-05-18T22:20:05.880Z,16.70
2023-05-18T22:22:32.282Z,16.74
2023-05-18T22:24:58.626Z,16.74
2023-05-18T22:27:25.082Z,16.69
2023-05-18T22:29:51.687Z,16.77
2023-05-18T22:32:19.199Z,16.02
2023-05-18T22:34:45.647Z,16.09
2023-05-18T22:37:13.149Z,16.42
2023-05-18T22:39:39.542Z,16.46
2023-05-18T22:42:06.184Z,17.00
2023-05-18T22:44:32.533Z,17.24
2023-05-18T22:46:59.102Z,17.28
2023-05-18T22:49:26.112Z,17.32
2023-05-18T22:51:52.580Z,17.25
2023-05-18T22:54:18.976Z,17.37
2023-05-18T22:56:45.385Z,17.28
2023-05-18T22:59:11.893Z,17.10
2023-05-18T23:01:38.517Z,17.21
2023-05-18T23:04:05.125Z,17.33
2023-05-18T23:06:31.653Z,17.32
2023-05-18T23:09:00.397Z,17.37
2023-05-18T23:11:28.420Z,17.35
2023-05-18T23:13:54.999Z,16.74
2023-05-18T23:16:22.543Z,17.19
2023-05-18T23:18:50.544Z,17.02
2023-05-18T23:21:17.088Z,17.02
2023-05-18T23:23:45.516Z,16.90
2023-05-18T23:26:12.593Z,16.93
2023-05-18T23:28:39.106Z,16.47
2023-05-18T23:31:05.559Z,16.77
2023-05-18T23:33:32.402Z,16.70
2023-05-18T23:36:02.512Z,16.68
2023-05-18T23:38:34.944Z,16.64
2023-05-18T23:41:03.385Z,16.47
2023-05-18T23:43:30.394Z,16.27
2023-05-18T23:45:59.532Z,16.40
2023-05-18T23:48:27.499Z,16.53
2023-05-18T23:50:59.705Z,16.62
2023-05-18T23:53:27.688Z,16.44
2023-05-18T23:55:56.680Z,16.53
2023-05-18T23:58:26.100Z,16.58
